createdAt,value
2022-08-30T00:00:20.554Z,981.52
2022-08-30T00:01:20.482Z,981.53
2022-08-30T00:02:20.512Z,981.51
2022-08-30T00:03:20.785Z,981.48
2022-08-30T00:04:20.257Z,981.48
2022-08-30T00:05:20.177Z,981.47
2022-08-30T00:06:20.106Z,981.47
2022-08-30T00:07:20.035Z,981.44
2022-08-30T00:08:19.955Z,981.44
2022-08-30T00:09:19.879Z,981.45
2022-08-30T00:10:19.810Z,981.45
2022-08-30T00:11:19.730Z,981.44
2022-08-30T00:12:19.658Z,981.43
2022-08-30T00:13:19.584Z,981.46
2022-08-30T00:14:19.504Z,981.43
2022-08-30T00:15:19.430Z,981.41
2022-08-30T00:16:19.365Z,981.45
2022-08-30T00:17:19.283Z,981.46
2022-08-30T00:18:19.211Z,981.46
2022-08-30T00:19:19.138Z,981.46
2022-08-30T00:20:19.061Z,981.43
2022-08-30T00:21:18.978Z,981.42
2022-08-30T00:22:18.904Z,981.43
2022-08-30T00:23:18.839Z,981.41
2022-08-30T00:24:18.757Z,981.39
2022-08-30T00:25:18.677Z,981.37
2022-08-30T00:26:18.620Z,981.33
2022-08-30T00:27:18.531Z,981.34
2022-08-30T00:28:18.458Z,981.37
2022-08-30T00:29:18.375Z,981.35
2022-08-30T00:30:18.301Z,981.37
2022-08-30T00:31:18.260Z,981.33
2022-08-30T00:32:18.149Z,981.31
2022-08-30T00:33:18.416Z,981.35
2022-08-30T00:34:18.000Z,981.34
2022-08-30T00:35:17.924Z,981.37
2022-08-30T00:36:17.863Z,981.37
2022-08-30T00:37:17.781Z,981.34
2022-08-30T00:38:17.699Z,981.35
2022-08-30T00:39:17.625Z,981.33
2022-08-30T00:40:17.564Z,981.32
2022-08-30T00:41:25.150Z,981.32
2022-08-30T00:43:21.815Z,981.34
2022-08-30T00:44:21.722Z,981.36
2022-08-30T00:45:21.650Z,981.36
2022-08-30T00:46:21.626Z,981.35
2022-08-30T00:47:21.494Z,981.35
2022-08-30T00:48:21.420Z,981.35
2022-08-30T00:49:21.345Z,981.38
2022-08-30T00:50:21.273Z,981.36
2022-08-30T00:51:21.196Z,981.37
2022-08-30T00:52:21.117Z,981.40
2022-08-30T00:53:21.049Z,981.40
2022-08-30T00:54:20.970Z,981.39
2022-08-30T00:55:20.894Z,981.41
2022-08-30T00:56:20.820Z,981.37
2022-08-30T00:57:20.742Z,981.40
2022-08-30T00:58:20.672Z,981.37
2022-08-30T00:59:20.599Z,981.39
2022-08-30T01:00:20.520Z,981.40
2022-08-30T01:01:20.512Z,981.37
2022-08-30T01:02:20.421Z,981.37
2022-08-30T01:03:20.296Z,981.37
2022-08-30T01:04:20.213Z,981.37
2022-08-30T01:05:20.142Z,981.36
2022-08-30T01:06:20.062Z,981.35
2022-08-30T01:07:19.986Z,981.33
2022-08-30T01:08:19.914Z,981.33
2022-08-30T01:09:19.841Z,981.33
2022-08-30T01:10:19.770Z,981.31
2022-08-30T01:11:19.687Z,981.30
2022-08-30T01:12:19.617Z,981.30
2022-08-30T01:13:19.536Z,981.30
2022-08-30T01:14:19.462Z,981.29
2022-08-30T01:15:19.381Z,981.26
2022-08-30T01:16:19.377Z,981.26
2022-08-30T01:17:19.239Z,981.26
2022-08-30T01:18:20.415Z,981.27
2022-08-30T01:19:19.083Z,981.24
2022-08-30T01:20:19.015Z,981.28
2022-08-30T01:21:18.930Z,981.27
2022-08-30T01:22:18.857Z,981.24
2022-08-30T01:23:18.785Z,981.30
2022-08-30T01:24:18.704Z,981.29
2022-08-30T01:25:18.634Z,981.24
2022-08-30T01:26:19.776Z,981.30
2022-08-30T01:27:18.478Z,981.30
2022-08-30T01:28:18.405Z,981.28
2022-08-30T01:29:18.325Z,981.31
2022-08-30T01:30:18.253Z,981.37
2022-08-30T01:31:18.250Z,981.34
2022-08-30T01:32:21.039Z,981.35
2022-08-30T01:33:18.231Z,981.32
2022-08-30T01:34:17.950Z,981.33
2022-08-30T01:35:17.873Z,981.34
2022-08-30T01:36:17.799Z,981.34
2022-08-30T01:37:17.727Z,981.26
2022-08-30T01:38:17.652Z,981.28
2022-08-30T01:39:17.631Z,981.25
2022-08-30T01:40:17.576Z,981.22
2022-08-30T01:41:17.424Z,981.23
2022-08-30T01:42:17.349Z,981.23
2022-08-30T01:43:17.504Z,981.22
2022-08-30T01:44:17.198Z,981.19
2022-08-30T01:45:17.118Z,981.23
2022-08-30T01:46:17.128Z,981.23
2022-08-30T01:47:16.970Z,981.26
2022-08-30T01:48:16.896Z,981.16
2022-08-30T01:49:16.817Z,981.18
2022-08-30T01:50:16.740Z,981.20
2022-08-30T01:51:16.669Z,981.21
2022-08-30T01:52:16.592Z,981.21
2022-08-30T01:53:16.771Z,981.22
2022-08-30T01:54:16.443Z,981.22
2022-08-30T01:55:16.358Z,981.22
2022-08-30T01:56:16.287Z,981.26
2022-08-30T01:57:16.211Z,981.28
2022-08-30T01:58:16.139Z,981.26
2022-08-30T01:59:16.060Z,981.26
2022-08-30T02:00:15.984Z,981.25
2022-08-30T02:01:15.965Z,981.26
2022-08-30T02:02:15.833Z,981.26
2022-08-30T02:03:16.036Z,981.26
2022-08-30T02:04:15.751Z,981.28
2022-08-30T02:05:15.607Z,981.28
2022-08-30T02:06:15.532Z,981.27
2022-08-30T02:07:17.121Z,981.27
2022-08-30T02:08:15.380Z,981.27
2022-08-30T02:09:15.302Z,981.28
2022-08-30T02:10:15.230Z,981.28
2022-08-30T02:11:15.149Z,981.29
2022-08-30T02:12:15.085Z,981.28
2022-08-30T02:13:15.272Z,981.23
2022-08-30T02:14:14.927Z,981.25
2022-08-30T02:15:14.847Z,981.22
2022-08-30T02:16:14.850Z,981.20
2022-08-30T02:17:14.702Z,981.20
2022-08-30T02:18:14.624Z,981.21
2022-08-30T02:19:14.543Z,981.25
2022-08-30T02:20:14.470Z,981.23
2022-08-30T02:21:14.391Z,981.20
2022-08-30T02:22:14.329Z,981.19
2022-08-30T02:23:14.275Z,981.18
2022-08-30T02:24:14.169Z,981.21
2022-08-30T02:25:20.626Z,981.18
2022-08-30T02:26:14.015Z,981.18
2022-08-30T02:27:13.941Z,981.23
2022-08-30T02:28:14.881Z,981.21
2022-08-30T02:29:13.786Z,981.22
2022-08-30T02:30:13.714Z,981.20
2022-08-30T02:31:13.695Z,981.18
2022-08-30T02:32:13.560Z,981.21
2022-08-30T02:33:13.562Z,981.20
2022-08-30T02:34:13.408Z,981.18
2022-08-30T02:35:13.331Z,981.19
2022-08-30T02:36:13.259Z,981.20
2022-08-30T02:37:13.177Z,981.16
2022-08-30T02:38:13.105Z,981.16
2022-08-30T02:39:13.032Z,981.18
2022-08-30T02:40:13.038Z,981.17
2022-08-30T02:41:12.876Z,981.21
2022-08-30T02:42:12.800Z,981.19
2022-08-30T02:43:12.775Z,981.22
2022-08-30T02:44:12.650Z,981.20
2022-08-30T02:45:12.577Z,981.23
2022-08-30T02:46:12.651Z,981.23
2022-08-30T02:47:12.421Z,981.25
2022-08-30T02:48:12.347Z,981.26
2022-08-30T02:49:32.517Z,981.25
2022-08-30T02:50:12.193Z,981.25
2022-08-30T02:51:12.115Z,981.27
2022-08-30T02:52:12.040Z,981.30
2022-08-30T02:53:14.448Z,981.30
2022-08-30T02:54:11.887Z,981.26
2022-08-30T02:55:11.814Z,981.26
2022-08-30T02:56:11.735Z,981.28
2022-08-30T02:57:16.084Z,981.25
2022-08-30T02:58:11.582Z,981.25
2022-08-30T02:59:11.506Z,981.26
2022-08-30T03:00:11.435Z,981.25
2022-08-30T03:01:11.394Z,981.25
2022-08-30T03:02:11.282Z,981.28
2022-08-30T03:03:11.204Z,981.29
2022-08-30T03:04:11.131Z,981.28
2022-08-30T03:05:11.049Z,981.29
2022-08-30T03:06:10.975Z,981.26
2022-08-30T03:07:10.902Z,981.29
2022-08-30T03:08:10.822Z,981.29
2022-08-30T03:09:10.749Z,981.32
2022-08-30T03:10:10.669Z,981.35
2022-08-30T03:11:10.597Z,981.29
2022-08-30T03:12:10.518Z,981.32
2022-08-30T03:13:10.442Z,981.32
2022-08-30T03:14:10.365Z,981.31
2022-08-30T03:15:10.288Z,981.31
2022-08-30T03:16:10.317Z,981.31
2022-08-30T03:17:12.715Z,981.27
2022-08-30T03:18:10.060Z,981.27
2022-08-30T03:19:09.984Z,981.29
2022-08-30T03:20:09.910Z,981.30
2022-08-30T03:21:09.836Z,981.29
2022-08-30T03:22:09.754Z,981.29
2022-08-30T03:23:09.716Z,981.29
2022-08-30T03:24:09.602Z,981.32
2022-08-30T03:25:09.527Z,981.33
2022-08-30T03:26:09.449Z,981.32
2022-08-30T03:27:09.370Z,981.36
2022-08-30T03:28:09.301Z,981.36
2022-08-30T03:29:09.222Z,981.36
2022-08-30T03:30:09.145Z,981.33
2022-08-30T03:31:09.072Z,981.32
2022-08-30T03:32:09.055Z,981.35
2022-08-30T03:33:08.969Z,981.36
2022-08-30T03:34:08.845Z,981.37
2022-08-30T03:35:08.809Z,981.38
2022-08-30T03:36:08.688Z,981.41
2022-08-30T03:37:08.610Z,981.38
2022-08-30T03:38:08.546Z,981.36
2022-08-30T03:39:08.461Z,981.37
2022-08-30T03:40:08.422Z,981.43
2022-08-30T03:41:08.302Z,981.39
2022-08-30T03:42:08.231Z,981.42
2022-08-30T03:43:08.243Z,981.43
2022-08-30T03:44:08.075Z,981.41
2022-08-30T03:45:08.004Z,981.38
2022-08-30T03:46:08.082Z,981.41
2022-08-30T03:47:07.847Z,981.41
2022-08-30T03:48:07.771Z,981.41
2022-08-30T03:49:07.694Z,981.47
2022-08-30T03:50:07.624Z,981.46
2022-08-30T03:51:07.540Z,981.52
2022-08-30T03:52:07.469Z,981.51
2022-08-30T03:53:07.390Z,981.48
2022-08-30T03:54:07.312Z,981.53
2022-08-30T03:55:07.243Z,981.47
2022-08-30T03:56:07.158Z,981.49
2022-08-30T03:57:07.084Z,981.49
2022-08-30T03:58:07.005Z,981.52
2022-08-30T03:59:06.936Z,981.56
2022-08-30T04:00:06.861Z,981.58
2022-08-30T04:01:06.892Z,981.59
2022-08-30T04:02:06.740Z,981.60
2022-08-30T04:03:06.625Z,981.59
2022-08-30T04:04:06.548Z,981.57
2022-08-30T04:05:06.470Z,981.58
2022-08-30T04:06:06.405Z,981.57
2022-08-30T04:07:06.324Z,981.57
2022-08-30T04:08:06.243Z,981.61
2022-08-30T04:09:06.171Z,981.58
2022-08-30T04:10:06.089Z,981.61
2022-08-30T04:11:06.013Z,981.60
2022-08-30T04:12:05.936Z,981.62
2022-08-30T04:13:05.859Z,981.64
2022-08-30T04:14:05.782Z,981.68
2022-08-30T04:15:05.708Z,981.67
2022-08-30T04:16:05.671Z,981.71
2022-08-30T04:17:05.553Z,981.69
2022-08-30T04:18:05.482Z,981.71
2022-08-30T04:19:05.397Z,981.73
2022-08-30T04:20:05.328Z,981.70
2022-08-30T04:21:05.248Z,981.70
2022-08-30T04:22:05.169Z,981.69
2022-08-30T04:23:05.093Z,981.72
2022-08-30T04:24:05.022Z,981.68
2022-08-30T04:25:04.943Z,981.66
2022-08-30T04:26:04.891Z,981.64
2022-08-30T04:27:04.786Z,981.65
2022-08-30T04:28:04.715Z,981.62
2022-08-30T04:29:04.633Z,981.66
2022-08-30T04:30:04.563Z,981.65
2022-08-30T04:31:04.477Z,981.66
2022-08-30T04:32:04.507Z,981.69
2022-08-30T04:33:04.329Z,981.68
2022-08-30T04:34:04.256Z,981.67
2022-08-30T04:35:04.176Z,981.72
2022-08-30T04:36:04.098Z,981.68
2022-08-30T04:37:04.026Z,981.67
2022-08-30T04:38:03.946Z,981.68
2022-08-30T04:39:03.869Z,981.65
2022-08-30T04:40:03.887Z,981.63
2022-08-30T04:41:03.719Z,981.64
2022-08-30T04:42:03.640Z,981.60
2022-08-30T04:43:03.561Z,981.65
2022-08-30T04:44:03.498Z,981.62
2022-08-30T04:45:03.411Z,981.56
2022-08-30T04:46:03.398Z,981.58
2022-08-30T04:47:03.253Z,981.56
2022-08-30T04:48:03.178Z,981.55
2022-08-30T04:49:03.101Z,981.56
2022-08-30T04:50:03.023Z,981.52
2022-08-30T04:51:02.947Z,981.58
2022-08-30T04:52:02.874Z,981.59
2022-08-30T04:53:02.800Z,981.59
2022-08-30T04:54:02.726Z,981.59
2022-08-30T04:55:02.642Z,981.61
2022-08-30T04:56:02.566Z,981.65
2022-08-30T04:57:02.492Z,981.62
2022-08-30T04:58:02.416Z,981.64
2022-08-30T04:59:02.339Z,981.67
2022-08-30T05:00:02.263Z,981.69
2022-08-30T05:01:02.207Z,981.74
2022-08-30T05:02:02.193Z,981.76
2022-08-30T05:03:02.036Z,981.81
2022-08-30T05:04:01.961Z,981.83
2022-08-30T05:05:01.878Z,981.84
2022-08-30T05:06:01.802Z,981.88
2022-08-30T05:07:01.727Z,981.93
2022-08-30T05:08:01.650Z,981.89
2022-08-30T05:09:01.575Z,981.90
2022-08-30T05:10:01.498Z,981.94
2022-08-30T05:11:01.419Z,981.93
2022-08-30T05:12:01.343Z,981.93
2022-08-30T05:13:01.299Z,981.96
2022-08-30T05:14:01.193Z,981.96
2022-08-30T05:15:01.113Z,981.98
2022-08-30T05:16:01.084Z,982.02
2022-08-30T05:17:00.958Z,982.06
2022-08-30T05:18:00.879Z,982.03
2022-08-30T05:19:00.811Z,982.03
2022-08-30T05:20:00.732Z,982.01
2022-08-30T05:21:00.653Z,982.02
2022-08-30T05:22:00.580Z,981.99
2022-08-30T05:23:00.501Z,981.99
2022-08-30T05:24:00.432Z,981.97
2022-08-30T05:25:00.348Z,982.01
2022-08-30T05:26:00.273Z,982.03
2022-08-30T05:27:00.193Z,982.00
2022-08-30T05:28:00.119Z,982.00
2022-08-30T05:29:00.063Z,982.01
2022-08-30T05:29:59.968Z,982.00
2022-08-30T05:30:59.919Z,982.01
2022-08-30T05:31:59.813Z,981.97
2022-08-30T05:32:59.735Z,981.94
2022-08-30T05:33:59.667Z,981.95
2022-08-30T05:34:59.582Z,981.95
2022-08-30T05:35:59.512Z,981.94
2022-08-30T05:36:59.434Z,981.95
2022-08-30T05:37:59.353Z,981.96
2022-08-30T05:38:59.278Z,981.94
2022-08-30T05:39:59.276Z,981.95
2022-08-30T05:40:59.131Z,981.93
2022-08-30T05:41:59.045Z,981.96
2022-08-30T05:42:58.968Z,981.94
2022-08-30T05:43:58.903Z,981.94
2022-08-30T05:44:58.824Z,981.94
2022-08-30T05:45:58.743Z,981.94
2022-08-30T05:46:58.665Z,981.97
2022-08-30T05:47:58.587Z,981.94
2022-08-30T05:48:58.509Z,981.98
2022-08-30T05:49:58.432Z,981.98
2022-08-30T05:50:58.364Z,982.00
2022-08-30T05:51:58.282Z,981.97
2022-08-30T05:52:58.209Z,982.01
2022-08-30T05:53:58.132Z,982.00
2022-08-30T05:54:58.051Z,982.02
2022-08-30T05:55:57.976Z,981.99
2022-08-30T05:56:57.898Z,982.02
2022-08-30T05:57:57.825Z,982.02
2022-08-30T05:58:57.752Z,982.04
2022-08-30T05:59:57.672Z,982.04
2022-08-30T06:00:57.595Z,982.08
2022-08-30T06:01:57.667Z,982.09
2022-08-30T06:02:57.509Z,982.09
2022-08-30T06:04:01.599Z,982.12
2022-08-30T06:04:57.525Z,982.09
2022-08-30T06:05:57.215Z,982.13
2022-08-30T06:06:57.137Z,982.12
2022-08-30T06:07:57.077Z,982.08
2022-08-30T06:08:56.991Z,982.07
2022-08-30T06:09:56.911Z,982.10
2022-08-30T06:10:56.831Z,982.10
2022-08-30T06:11:56.757Z,982.11
2022-08-30T06:12:56.689Z,982.11
2022-08-30T06:13:56.607Z,982.14
2022-08-30T06:14:56.526Z,982.12
2022-08-30T06:15:56.469Z,982.12
2022-08-30T06:16:56.378Z,982.10
2022-08-30T06:17:56.307Z,982.08
2022-08-30T06:18:56.227Z,982.07
2022-08-30T06:19:56.154Z,982.04
2022-08-30T06:20:56.082Z,982.06
2022-08-30T06:21:55.998Z,982.10
2022-08-30T06:22:55.920Z,982.06
2022-08-30T06:23:55.844Z,982.05
2022-08-30T06:24:58.081Z,982.05
2022-08-30T06:25:55.690Z,982.06
2022-08-30T06:26:55.617Z,982.06
2022-08-30T06:27:56.589Z,982.05
2022-08-30T06:28:55.464Z,982.03
2022-08-30T06:29:55.394Z,982.03
2022-08-30T06:30:55.374Z,982.09
2022-08-30T06:31:55.239Z,982.11
2022-08-30T06:32:55.160Z,982.16
2022-08-30T06:33:55.090Z,982.17
2022-08-30T06:34:55.009Z,982.20
2022-08-30T06:35:59.234Z,982.19
2022-08-30T06:36:54.856Z,982.20
2022-08-30T06:37:54.786Z,982.19
2022-08-30T06:38:54.706Z,982.19
2022-08-30T06:39:54.629Z,982.17
2022-08-30T06:40:54.555Z,982.22
2022-08-30T06:41:54.499Z,982.21
2022-08-30T06:42:54.408Z,982.26
2022-08-30T06:43:54.327Z,982.27
2022-08-30T06:44:54.252Z,982.25
2022-08-30T06:45:54.175Z,982.28
2022-08-30T06:46:54.166Z,982.27
2022-08-30T06:47:54.031Z,982.25
2022-08-30T06:48:56.104Z,982.23
2022-08-30T06:49:53.876Z,982.21
2022-08-30T06:50:53.798Z,982.17
2022-08-30T06:51:53.726Z,982.15
2022-08-30T06:52:53.646Z,982.14
2022-08-30T06:53:53.577Z,982.11
2022-08-30T06:54:53.495Z,982.17
2022-08-30T06:55:53.426Z,982.10
2022-08-30T06:56:58.536Z,982.12
2022-08-30T06:57:53.279Z,982.09
2022-08-30T06:58:53.199Z,982.07
2022-08-30T06:59:57.034Z,982.13
2022-08-30T07:00:53.049Z,982.14
2022-08-30T07:01:53.002Z,982.12
2022-08-30T07:02:52.943Z,982.14
2022-08-30T07:03:52.815Z,982.13
2022-08-30T07:04:52.739Z,982.11
2022-08-30T07:05:52.663Z,982.11
2022-08-30T07:06:52.588Z,982.12
2022-08-30T07:07:52.510Z,982.10
2022-08-30T07:08:56.450Z,982.08
2022-08-30T07:09:52.359Z,982.07
2022-08-30T07:10:52.292Z,982.08
2022-08-30T07:11:52.211Z,982.06
2022-08-30T07:12:52.135Z,982.07
2022-08-30T07:13:52.065Z,982.09
2022-08-30T07:14:51.982Z,982.06
2022-08-30T07:15:51.937Z,982.06
2022-08-30T07:16:52.128Z,982.04
2022-08-30T07:17:51.772Z,982.05
2022-08-30T07:18:51.695Z,982.03
2022-08-30T07:19:51.614Z,982.04
2022-08-30T07:20:51.537Z,982.01
2022-08-30T07:21:51.464Z,982.04
2022-08-30T07:22:51.383Z,982.01
2022-08-30T07:23:53.485Z,982.00
2022-08-30T07:24:51.227Z,981.99
2022-08-30T07:25:51.155Z,982.02
2022-08-30T07:26:51.079Z,982.07
2022-08-30T07:27:51.000Z,982.02
2022-08-30T07:28:56.014Z,982.00
2022-08-30T07:29:50.853Z,982.08
2022-08-30T07:30:50.777Z,982.06
2022-08-30T07:31:50.708Z,982.11
2022-08-30T07:32:50.629Z,982.11
2022-08-30T07:33:50.555Z,982.10
2022-08-30T07:34:51.623Z,982.15
2022-08-30T07:35:50.402Z,982.17
2022-08-30T07:36:50.324Z,982.16
2022-08-30T07:37:50.253Z,982.13
2022-08-30T07:38:50.176Z,982.17
2022-08-30T07:39:50.102Z,982.14
2022-08-30T07:40:50.030Z,982.17
2022-08-30T07:41:49.953Z,982.18
2022-08-30T07:42:49.874Z,982.18
2022-08-30T07:43:49.809Z,982.18
2022-08-30T07:44:52.639Z,982.20
2022-08-30T07:45:49.650Z,982.18
2022-08-30T07:46:49.658Z,982.19
2022-08-30T07:47:49.500Z,982.19
2022-08-30T07:48:49.427Z,982.20
2022-08-30T07:49:49.348Z,982.20
2022-08-30T07:50:52.549Z,982.25
2022-08-30T07:51:49.202Z,982.22
2022-08-30T07:52:49.134Z,982.23
2022-08-30T07:53:49.048Z,982.18
2022-08-30T07:54:52.763Z,982.19
2022-08-30T07:55:48.904Z,982.18
2022-08-30T07:56:48.822Z,982.17
2022-08-30T07:57:48.753Z,982.18
2022-08-30T07:58:48.729Z,982.18
2022-08-30T07:59:48.603Z,982.20
2022-08-30T08:00:48.527Z,982.18
2022-08-30T08:01:48.476Z,982.19
2022-08-30T08:02:48.428Z,982.13
2022-08-30T08:03:48.301Z,982.16
2022-08-30T08:04:48.231Z,982.13
2022-08-30T08:05:48.150Z,982.14
2022-08-30T08:06:48.079Z,982.13
2022-08-30T08:07:48.004Z,982.14
2022-08-30T08:08:47.932Z,982.15
2022-08-30T08:09:47.851Z,982.16
2022-08-30T08:10:47.779Z,982.15
2022-08-30T08:11:47.702Z,982.12
2022-08-30T08:12:47.627Z,982.11
2022-08-30T08:13:53.419Z,982.13
2022-08-30T08:14:47.480Z,982.08
2022-08-30T08:15:47.440Z,982.06
2022-08-30T08:16:47.340Z,982.04
2022-08-30T08:17:47.258Z,982.01
2022-08-30T08:18:47.179Z,982.00
2022-08-30T08:19:47.118Z,982.04
2022-08-30T08:20:47.031Z,982.02
2022-08-30T08:21:46.971Z,982.01
2022-08-30T08:22:46.882Z,982.07
2022-08-30T08:23:46.809Z,982.01
2022-08-30T08:24:46.738Z,981.98
2022-08-30T08:25:46.660Z,981.99
2022-08-30T08:26:46.638Z,981.97
2022-08-30T08:27:46.510Z,982.00
2022-08-30T08:28:46.431Z,982.00
2022-08-30T08:29:46.365Z,982.03
2022-08-30T08:30:48.311Z,982.09
2022-08-30T08:31:46.299Z,982.10
2022-08-30T08:32:46.135Z,982.09
2022-08-30T08:33:46.063Z,982.13
2022-08-30T08:34:46.128Z,982.10
2022-08-30T08:35:45.913Z,982.11
2022-08-30T08:36:45.839Z,982.14
2022-08-30T08:37:45.767Z,982.15
2022-08-30T08:38:45.691Z,982.18
2022-08-30T08:39:45.622Z,982.19
2022-08-30T08:40:45.612Z,982.19
2022-08-30T08:41:45.471Z,982.16
2022-08-30T08:42:45.391Z,982.16
2022-08-30T08:43:45.323Z,982.12
2022-08-30T08:44:45.293Z,982.15
2022-08-30T08:45:45.175Z,982.11
2022-08-30T08:46:45.300Z,982.11
2022-08-30T08:47:45.021Z,982.13
2022-08-30T08:48:59.674Z,982.14
2022-08-30T08:49:44.875Z,982.11
2022-08-30T08:50:44.807Z,982.08
2022-08-30T08:51:44.738Z,982.04
2022-08-30T08:52:44.653Z,982.04
2022-08-30T08:53:46.912Z,982.03
2022-08-30T08:54:44.517Z,981.99
2022-08-30T08:55:44.481Z,982.02
2022-08-30T08:56:44.357Z,982.01
2022-08-30T08:57:44.287Z,982.03
2022-08-30T08:58:44.204Z,982.00
2022-08-30T08:59:44.143Z,981.99
2022-08-30T09:00:44.062Z,982.02
2022-08-30T09:01:44.026Z,981.99
2022-08-30T09:02:43.912Z,982.02
2022-08-30T09:03:43.833Z,982.01
2022-08-30T09:04:43.810Z,982.02
2022-08-30T09:05:43.691Z,981.99
2022-08-30T09:06:45.149Z,981.98
2022-08-30T09:07:43.552Z,981.98
2022-08-30T09:08:43.467Z,981.91
2022-08-30T09:09:43.396Z,981.91
2022-08-30T09:10:51.140Z,981.90
2022-08-30T09:11:44.495Z,981.88
2022-08-30T09:12:43.173Z,981.86
2022-08-30T09:13:43.102Z,981.83
2022-08-30T09:14:46.096Z,981.90
2022-08-30T09:15:43.062Z,981.87
2022-08-30T09:16:42.877Z,981.89
2022-08-30T09:17:42.802Z,981.86
2022-08-30T09:18:42.728Z,981.87
2022-08-30T09:19:42.652Z,981.85
2022-08-30T09:20:42.602Z,981.83
2022-08-30T09:21:42.511Z,981.83
2022-08-30T09:22:42.436Z,981.82
2022-08-30T09:23:42.371Z,981.84
2022-08-30T09:24:42.359Z,981.83
2022-08-30T09:25:42.216Z,981.83
2022-08-30T09:26:42.143Z,981.83
2022-08-30T09:27:42.069Z,981.83
2022-08-30T09:28:41.989Z,981.80
2022-08-30T09:29:41.924Z,981.80
2022-08-30T09:30:41.888Z,981.78
2022-08-30T09:31:41.772Z,981.76
2022-08-30T09:32:41.692Z,981.73
2022-08-30T09:33:41.636Z,981.74
2022-08-30T09:34:41.555Z,981.76
2022-08-30T09:35:41.477Z,981.73
2022-08-30T09:36:41.399Z,981.70
2022-08-30T09:37:41.328Z,981.68
2022-08-30T09:38:41.257Z,981.69
2022-08-30T09:39:41.181Z,981.68
2022-08-30T09:40:41.145Z,981.68
2022-08-30T09:41:41.049Z,981.66
2022-08-30T09:42:40.962Z,981.67
2022-08-30T09:43:40.885Z,981.70
2022-08-30T09:44:40.812Z,981.70
2022-08-30T09:45:40.742Z,981.68
2022-08-30T09:46:40.735Z,981.68
2022-08-30T09:47:40.597Z,981.68
2022-08-30T09:48:40.542Z,981.69
2022-08-30T09:49:40.450Z,981.66
2022-08-30T09:50:42.239Z,981.67
2022-08-30T09:51:40.355Z,981.68
2022-08-30T09:52:40.871Z,981.66
2022-08-30T09:53:42.482Z,981.64
2022-08-30T09:54:40.078Z,981.67
2022-08-30T09:55:40.005Z,981.66
2022-08-30T09:56:39.931Z,981.70
2022-08-30T09:57:39.860Z,981.68
2022-08-30T09:58:39.785Z,981.67
2022-08-30T09:59:39.719Z,981.66
2022-08-30T10:00:39.651Z,981.63
2022-08-30T10:01:39.605Z,981.60
2022-08-30T10:02:39.502Z,981.67
2022-08-30T10:03:40.518Z,981.63
2022-08-30T10:04:39.351Z,981.65
2022-08-30T10:05:39.274Z,981.66
2022-08-30T10:06:39.199Z,981.67
2022-08-30T10:07:39.128Z,981.62
2022-08-30T10:08:39.055Z,981.60
2022-08-30T10:09:38.986Z,981.60
2022-08-30T10:10:42.809Z,981.55
2022-08-30T10:11:38.841Z,981.57
2022-08-30T10:12:38.763Z,981.55
2022-08-30T10:13:38.691Z,981.55
2022-08-30T10:14:38.616Z,981.54
2022-08-30T10:15:38.543Z,981.53
2022-08-30T10:16:38.477Z,981.50
2022-08-30T10:17:38.397Z,981.52
2022-08-30T10:18:38.323Z,981.46
2022-08-30T10:19:38.258Z,981.50
2022-08-30T10:20:38.178Z,981.53
2022-08-30T10:21:38.110Z,981.54
2022-08-30T10:22:38.061Z,981.50
2022-08-30T10:23:37.959Z,981.51
2022-08-30T10:24:37.887Z,981.46
2022-08-30T10:25:37.817Z,981.46
2022-08-30T10:26:37.739Z,981.46
2022-08-30T10:27:37.672Z,981.46
2022-08-30T10:28:37.599Z,981.46
2022-08-30T10:29:41.851Z,981.45
2022-08-30T10:30:37.453Z,981.46
2022-08-30T10:31:37.381Z,981.44
2022-08-30T10:32:37.312Z,981.40
2022-08-30T10:33:37.240Z,981.40
2022-08-30T10:34:37.161Z,981.39
2022-08-30T10:35:38.937Z,981.35
2022-08-30T10:36:37.019Z,981.35
2022-08-30T10:37:36.947Z,981.31
2022-08-30T10:38:36.880Z,981.32
2022-08-30T10:39:36.828Z,981.30
2022-08-30T10:40:36.769Z,981.31
2022-08-30T10:41:36.662Z,981.30
2022-08-30T10:42:39.929Z,981.30
2022-08-30T10:43:36.514Z,981.28
2022-08-30T10:44:36.446Z,981.28
2022-08-30T10:45:36.369Z,981.27
2022-08-30T10:46:36.294Z,981.22
2022-08-30T10:47:36.228Z,981.19
2022-08-30T10:48:36.176Z,981.15
2022-08-30T10:49:36.079Z,981.17
2022-08-30T10:50:39.036Z,981.16
2022-08-30T10:51:35.934Z,981.15
2022-08-30T10:52:35.863Z,981.16
2022-08-30T10:53:35.795Z,981.14
2022-08-30T10:54:35.716Z,981.12
2022-08-30T10:55:35.652Z,981.12
2022-08-30T10:56:35.576Z,981.10
2022-08-30T10:57:35.507Z,981.13
2022-08-30T10:58:35.435Z,981.13
2022-08-30T10:59:35.367Z,981.12
2022-08-30T11:00:35.297Z,981.14
2022-08-30T11:01:35.259Z,981.10
2022-08-30T11:02:35.145Z,981.09
2022-08-30T11:03:35.079Z,981.10
2022-08-30T11:04:35.008Z,981.07
2022-08-30T11:05:34.938Z,981.10
2022-08-30T11:06:34.862Z,981.07
2022-08-30T11:07:34.795Z,981.06
2022-08-30T11:08:34.716Z,981.06
2022-08-30T11:09:34.650Z,981.04
2022-08-30T11:10:34.579Z,981.02
2022-08-30T11:11:34.507Z,981.05
2022-08-30T11:12:34.455Z,981.08
2022-08-30T11:13:34.366Z,981.05
2022-08-30T11:14:34.296Z,981.05
2022-08-30T11:15:34.246Z,981.04
2022-08-30T11:16:34.151Z,981.03
2022-08-30T11:17:34.081Z,981.01
2022-08-30T11:18:34.017Z,980.97
2022-08-30T11:19:33.942Z,981.00
2022-08-30T11:20:34.493Z,981.02
2022-08-30T11:21:33.799Z,980.96
2022-08-30T11:22:38.270Z,980.99
2022-08-30T11:23:33.683Z,980.95
2022-08-30T11:24:33.585Z,980.93
2022-08-30T11:25:33.548Z,980.94
2022-08-30T11:26:33.439Z,980.91
2022-08-30T11:27:33.378Z,980.88
2022-08-30T11:28:33.300Z,980.84
2022-08-30T11:29:33.230Z,980.82
2022-08-30T11:30:33.156Z,980.83
2022-08-30T11:31:33.086Z,980.85
2022-08-30T11:32:33.018Z,980.80
2022-08-30T11:33:32.945Z,980.82
2022-08-30T11:34:32.874Z,980.78
2022-08-30T11:35:32.803Z,980.77
2022-08-30T11:36:37.908Z,980.80
2022-08-30T11:37:32.664Z,980.81
2022-08-30T11:38:32.596Z,980.80
2022-08-30T11:39:32.519Z,980.80
2022-08-30T11:40:32.452Z,980.81
2022-08-30T11:41:32.380Z,980.79
2022-08-30T11:42:32.312Z,980.78
2022-08-30T11:43:32.241Z,980.81
2022-08-30T11:44:32.166Z,980.79
2022-08-30T11:45:32.140Z,980.81
2022-08-30T11:46:32.109Z,980.79
2022-08-30T11:47:31.958Z,980.81
2022-08-30T11:48:31.886Z,980.80
2022-08-30T11:49:31.815Z,980.80
2022-08-30T11:50:31.749Z,980.82
2022-08-30T11:51:31.674Z,980.82
2022-08-30T11:52:31.609Z,980.80
2022-08-30T11:53:31.535Z,980.79
2022-08-30T11:54:31.464Z,980.81
2022-08-30T11:55:31.392Z,980.81
2022-08-30T11:56:31.325Z,980.81
2022-08-30T11:57:31.252Z,980.81
2022-08-30T11:58:31.188Z,980.80
2022-08-30T11:59:31.111Z,980.79
2022-08-30T12:00:31.548Z,980.83
2022-08-30T12:01:50.523Z,980.88
2022-08-30T12:02:30.988Z,980.82
2022-08-30T12:03:30.988Z,980.83
2022-08-30T12:04:30.754Z,980.85
2022-08-30T12:05:30.689Z,980.81
2022-08-30T12:06:30.621Z,980.82
2022-08-30T12:07:30.541Z,980.79
2022-08-30T12:08:30.474Z,980.80
2022-08-30T12:09:30.405Z,980.80
2022-08-30T12:10:30.331Z,980.78
2022-08-30T12:11:30.267Z,980.76
2022-08-30T12:12:30.191Z,980.76
2022-08-30T12:13:30.118Z,980.75
2022-08-30T12:14:30.048Z,980.75
2022-08-30T12:15:29.979Z,980.76
2022-08-30T12:16:29.953Z,980.72
2022-08-30T12:17:29.839Z,980.75
2022-08-30T12:18:29.764Z,980.76
2022-08-30T12:19:29.691Z,980.73
2022-08-30T12:20:29.623Z,980.74
2022-08-30T12:21:31.267Z,980.76
2022-08-30T12:22:29.498Z,980.76
2022-08-30T12:23:29.411Z,980.76
2022-08-30T12:24:29.340Z,980.74
2022-08-30T12:25:29.268Z,980.75
2022-08-30T12:26:29.198Z,980.75
2022-08-30T12:27:32.427Z,980.73
2022-08-30T12:28:29.074Z,980.77